Lincoln, Montana
Current Conditions -  °F | °C
As of 3:53 PM on Thursday 18 Dec 2014 (Local Time) from KHLN Reporting Station
Clear Clear  
Wind Chill: 25°   Ceiling: Unl
Heat Index: 30°   Visibility: 10mi
Dew Point: 23°   Wind: 5mph
Humidity: 75%   Direction: 270°W
Pressure: 29.98"   Gusts: NA
Location:  46.95°N, 112.68°W
Report Text: KHLN 182253Z 27004KT 10SM CLR M01/M05 A2998 RMK AO2 SLP208 T10111050
Loading
Personal Weather Stations






























Interactive Weather Map New forecast layout! Learn more

10-Day Weather Forecast

Advertisements
Track Severe Weather on mobile